Hlavní strana
METAR-TAF:

METAR-TAF

Letiště :

Columbia, Jižní Karolína, Spojené státy americké

zeměpisná šířka: 33-56-31N, zeměpisná délka: 081-07-05W, výška: 71 m

Aktuální stav počasí

Zpráva byla vytvořena před 43 minutami, v 10:56 UTC
Západojihozápadní vítr 6 kt
Teplota 22°C
Vlhkost vzduchu 73%
Tlak 1021 hPa
Viditelnost: 16.1 km
Skoro jasno ve výšce 5000 ft

METAR: KCAE 241056Z 24006KT 10SM FEW050 22/17 A3014 RMK AO2 SLP203 T02220172

Čas: 07:39 (11:39 UTC)

Předpověď počasí

Zpráva byla vytvořena před 15 minutami, v 11:24 UTC
Předpověď platná od 24 v 12 UTC do 25 v 12 UTC
Jihozápadní vítr 6 kt
Viditelnost: 10 km
Jasno
Od 24 v 1500 UTC
Západní vítr 7 kt
Viditelnost: 10 km
Polojasno ve výšce 4500 ft
Od 25 v 0100 UTC
Západní vítr 3 kt
Viditelnost: 10 km
Skoro jasno ve výšce 25000 ft

TAF: KCAE 241124Z 2412/2512 23006KT P6SM SKC FM241500 27007KT P6SM SCT045 FM250100 28003KT P6SM FEW250

Stav a předpovědi počasí z více než 4 000 letišť (zprávy METAR a TAF).

Červené a žluté tečky na mapě představují dostupné meteorologické stanice.

Když kurzor umístíte na tečku, zobrazí se název stanice.

Pak kliknutím zobrazíte stav a předpověď počasí.

Chcete-li změnit mapu, kliknutím na zelené tlačítko se znaménkem +mapu přiblížíte, kliknutím na zelené tlačítko se znaménkem – mapu oddálíte a kliknutím na zelené šipky přejdete na sousední mapy.


METAR-TAF: